createdAt,value
2018-10-12T00:00:22.005Z,21.70
2018-10-12T00:03:03.386Z,21.53
2018-10-12T00:05:34.914Z,19.60
2018-10-12T00:08:07.684Z,20.00
2018-10-12T00:10:39.684Z,20.50
2018-10-12T00:13:15.303Z,20.03
2018-10-12T00:15:48.655Z,20.53
2018-10-12T00:18:20.945Z,21.20
2018-10-12T00:20:52.536Z,19.77
2018-10-12T00:23:24.639Z,20.87
2018-10-12T00:25:56.738Z,19.77
2018-10-12T00:28:27.954Z,20.30
2018-10-12T00:30:59.202Z,21.03
2018-10-12T00:33:33.082Z,22.23
2018-10-12T00:36:05.062Z,20.80
2018-10-12T00:38:37.231Z,20.63
2018-10-12T00:41:09.298Z,20.90
2018-10-12T00:43:40.485Z,21.03
2018-10-12T00:46:12.324Z,20.93
2018-10-12T00:48:44.319Z,20.07
2018-10-12T00:51:15.548Z,20.27
2018-10-12T00:53:47.161Z,20.43
2018-10-12T00:56:19.376Z,20.43
2018-10-12T00:58:51.429Z,21.00
2018-10-12T01:01:22.764Z,20.93
2018-10-12T01:03:53.904Z,20.00
2018-10-12T01:06:26.097Z,20.93
2018-10-12T01:08:58.517Z,19.97
2018-10-12T01:11:30.351Z,20.53
2018-10-12T01:14:03.346Z,21.07
2018-10-12T01:16:43.471Z,19.50
2018-10-12T01:19:14.922Z,19.90
2018-10-12T01:21:46.510Z,21.17
2018-10-12T01:24:17.678Z,20.60
2018-10-12T01:26:50.077Z,19.37
2018-10-12T01:29:21.461Z,20.40
2018-10-12T01:31:53.747Z,20.00
2018-10-12T01:34:25.052Z,19.77
2018-10-12T01:36:56.546Z,20.07
2018-10-12T01:39:28.813Z,21.83
2018-10-12T01:42:00.317Z,20.17
2018-10-12T01:44:32.668Z,21.20
2018-10-12T01:47:05.685Z,21.97
2018-10-12T01:49:37.321Z,21.30
2018-10-12T01:52:09.563Z,26.10
2018-10-12T01:54:44.202Z,22.77
2018-10-12T01:57:15.639Z,21.40
2018-10-12T01:59:47.925Z,20.83
2018-10-12T02:02:19.629Z,24.10
2018-10-12T02:04:50.921Z,25.83
2018-10-12T02:07:28.810Z,21.30
2018-10-12T02:10:01.944Z,19.57
2018-10-12T02:12:33.480Z,19.67
2018-10-12T02:15:06.433Z,18.43
2018-10-12T02:17:38.224Z,20.40
2018-10-12T02:20:10.944Z,20.27
2018-10-12T02:22:42.322Z,21.17
2018-10-12T02:25:14.653Z,19.30
2018-10-12T02:27:46.603Z,19.13
2018-10-12T02:30:17.842Z,20.70
2018-10-12T02:32:49.574Z,19.53
2018-10-12T02:35:21.887Z,19.40
2018-10-12T02:37:53.438Z,20.40
2018-10-12T02:40:24.845Z,20.90
2018-10-12T02:42:57.152Z,19.50
2018-10-12T02:45:28.304Z,19.20
2018-10-12T02:48:00.225Z,21.50
2018-10-12T02:50:31.762Z,19.80
2018-10-12T02:53:06.581Z,21.07
2018-10-12T02:55:37.829Z,19.80
2018-10-12T02:58:09.845Z,20.03
2018-10-12T03:00:41.304Z,20.47
2018-10-12T03:03:12.594Z,21.47
2018-10-12T03:05:44.748Z,22.00
2018-10-12T03:08:16.073Z,19.40
2018-10-12T03:10:48.750Z,19.97
2018-10-12T03:13:20.300Z,20.70
2018-10-12T03:15:52.074Z,20.70
2018-10-12T03:18:23.330Z,19.37
2018-10-12T03:20:55.845Z,20.83
2018-10-12T03:23:28.053Z,20.83
2018-10-12T03:26:01.163Z,19.83
2018-10-12T03:28:35.664Z,20.60
2018-10-12T03:31:11.066Z,19.67
2018-10-12T03:33:45.282Z,19.80
2018-10-12T03:36:16.690Z,21.97
2018-10-12T03:38:48.776Z,19.50
2018-10-12T03:41:19.983Z,18.10
2018-10-12T03:43:54.837Z,20.63
2018-10-12T03:46:26.207Z,20.17
2018-10-12T03:48:59.657Z,19.10
2018-10-12T03:51:30.991Z,20.17
2018-10-12T03:54:02.511Z,19.27
2018-10-12T03:56:33.684Z,19.77
2018-10-12T03:59:05.089Z,18.87
2018-10-12T04:01:36.927Z,18.73
2018-10-12T04:04:08.219Z,19.57
2018-10-12T04:06:39.431Z,20.37
2018-10-12T04:09:11.858Z,16.23
2018-10-12T04:11:43.398Z,18.27
2018-10-12T04:14:14.633Z,23.20
2018-10-12T04:16:45.812Z,17.30
2018-10-12T04:19:18.541Z,22.40
2018-10-12T04:21:50.700Z,18.73
2018-10-12T04:24:22.021Z,16.80
2018-10-12T04:27:01.424Z,18.00
2018-10-12T04:29:32.687Z,18.20
2018-10-12T04:32:03.005Z,19.27
2018-10-12T04:34:33.286Z,19.13
2018-10-12T04:37:04.069Z,18.33
2018-10-12T04:39:52.349Z,18.90
2018-10-12T04:42:23.057Z,18.87
2018-10-12T04:45:00.986Z,19.27
2018-10-12T04:47:32.489Z,18.70
2018-10-12T04:50:03.318Z,20.10
2018-10-12T04:52:34.144Z,19.30
2018-10-12T04:55:04.730Z,20.97
2018-10-12T04:57:36.393Z,19.70
2018-10-12T05:00:07.547Z,20.23
2018-10-12T05:02:38.143Z,20.03
2018-10-12T05:05:09.761Z,20.57
2018-10-12T05:07:40.559Z,19.17
2018-10-12T05:10:11.106Z,19.70
2018-10-12T05:12:43.128Z,21.13
2018-10-12T05:15:13.538Z,21.60
2018-10-12T05:17:43.750Z,20.60
2018-10-12T05:20:15.608Z,19.63
2018-10-12T05:22:46.334Z,21.07
2018-10-12T05:25:17.185Z,22.30
2018-10-12T05:27:47.468Z,19.33
2018-10-12T05:30:20.007Z,21.63
2018-10-12T05:32:51.053Z,19.57
2018-10-12T05:35:23.040Z,20.27
2018-10-12T05:37:53.267Z,20.03
2018-10-12T05:40:25.382Z,20.07
2018-10-12T05:42:55.635Z,16.17
2018-10-12T05:45:30.075Z,19.03
2018-10-12T05:49:15.341Z,17.90
2018-10-12T05:51:45.772Z,18.23
2018-10-12T05:54:16.344Z,20.13
2018-10-12T05:56:47.233Z,19.20
2018-10-12T05:59:17.690Z,18.50
2018-10-12T06:01:47.821Z,18.83
2018-10-12T06:04:17.994Z,21.80
2018-10-12T06:06:48.404Z,17.63
2018-10-12T06:09:18.606Z,20.33
2018-10-12T06:11:48.720Z,18.30
2018-10-12T06:14:20.357Z,20.70
2018-10-12T06:16:51.586Z,20.87
2018-10-12T06:19:22.862Z,21.37
2018-10-12T06:21:52.980Z,19.60
2018-10-12T06:24:23.972Z,18.93
2018-10-12T06:26:55.713Z,22.03
2018-10-12T06:29:28.500Z,20.50
2018-10-12T06:31:58.729Z,20.30
2018-10-12T06:34:29.006Z,19.33
2018-10-12T06:37:00.226Z,21.77
2018-10-12T06:39:30.434Z,24.40
2018-10-12T06:42:00.531Z,21.93
2018-10-12T06:44:31.758Z,18.90
2018-10-12T06:47:01.888Z,20.57
2018-10-12T06:49:33.483Z,20.50
2018-10-12T06:52:03.654Z,20.37
2018-10-12T06:54:33.799Z,19.37
2018-10-12T06:57:05.240Z,23.37
2018-10-12T06:59:35.872Z,19.63
2018-10-12T07:02:06.171Z,20.53
2018-10-12T07:04:36.864Z,20.83
2018-10-12T07:07:07.048Z,22.33
2018-10-12T07:09:37.200Z,19.00
2018-10-12T07:12:07.359Z,20.80
2018-10-12T07:14:37.849Z,19.63
2018-10-12T07:17:08.236Z,19.63
2018-10-12T07:19:38.393Z,21.27
2018-10-12T07:22:08.571Z,17.00
2018-10-12T07:24:38.660Z,20.93
2018-10-12T07:27:08.938Z,19.00
2018-10-12T07:29:39.100Z,19.47
2018-10-12T07:32:09.351Z,18.53
2018-10-12T07:34:39.619Z,18.87
2018-10-12T07:37:09.808Z,22.07
2018-10-12T07:39:39.893Z,18.93
2018-10-12T07:42:10.537Z,20.00
2018-10-12T07:44:40.597Z,17.80
2018-10-12T07:47:10.841Z,19.13
2018-10-12T07:49:41.009Z,18.03
2018-10-12T07:52:11.148Z,18.77
2018-10-12T07:54:41.287Z,17.10
2018-10-12T07:57:12.313Z,17.63
2018-10-12T07:59:43.568Z,18.90
2018-10-12T08:02:14.564Z,18.63
2018-10-12T08:04:44.692Z,17.27
2018-10-12T08:07:14.819Z,16.60
2018-10-12T08:09:44.973Z,17.27
2018-10-12T08:12:15.088Z,18.87
2018-10-12T08:14:45.254Z,15.60
2018-10-12T08:17:15.432Z,18.20
2018-10-12T08:19:45.721Z,16.63
2018-10-12T08:22:15.960Z,16.30
2018-10-12T08:24:46.075Z,16.43
2018-10-12T08:27:16.263Z,15.53
2018-10-12T08:29:47.713Z,16.13
2018-10-12T08:32:18.032Z,16.33
2018-10-12T08:34:48.153Z,17.73
2018-10-12T08:37:18.311Z,22.23
2018-10-12T08:39:48.516Z,17.03
2018-10-12T08:42:19.015Z,16.67
2018-10-12T08:44:49.104Z,16.50
2018-10-12T08:47:19.400Z,17.77
2018-10-12T08:49:49.560Z,17.40
2018-10-12T08:52:19.960Z,15.87
2018-10-12T08:54:50.227Z,17.03
2018-10-12T08:57:20.463Z,17.10
2018-10-12T08:59:50.624Z,16.63
2018-10-12T09:02:20.815Z,17.10
2018-10-12T09:04:51.104Z,15.70
2018-10-12T09:07:21.444Z,14.97
2018-10-12T09:09:51.667Z,16.30
2018-10-12T09:12:21.825Z,14.53
2018-10-12T09:14:53.214Z,14.30
2018-10-12T09:17:23.941Z,13.87
2018-10-12T09:19:56.654Z,14.53
2018-10-12T09:22:26.789Z,16.20
2018-10-12T09:24:56.917Z,16.37
2018-10-12T09:27:27.068Z,15.73
2018-10-12T09:29:57.580Z,14.70
2018-10-12T09:32:27.725Z,14.67
2018-10-12T09:34:58.066Z,15.90
2018-10-12T09:37:28.203Z,17.17
2018-10-12T09:39:59.460Z,14.87
2018-10-12T09:42:29.585Z,15.47
2018-10-12T09:44:59.719Z,15.77
2018-10-12T09:47:29.822Z,14.43
2018-10-12T09:49:59.908Z,16.50
2018-10-12T09:52:30.013Z,14.27
2018-10-12T09:55:00.117Z,11.73
2018-10-12T09:57:35.137Z,9.77
2018-10-12T10:00:09.726Z,10.00
2018-10-12T10:02:48.836Z,13.83
2018-10-12T10:05:19.340Z,9.27
2018-10-12T10:07:49.600Z,9.57
2018-10-12T10:10:19.677Z,7.37
2018-10-12T10:12:49.791Z,7.50
2018-10-12T10:15:19.969Z,6.70
2018-10-12T10:17:50.048Z,6.93
2018-10-12T10:20:20.194Z,6.33
2018-10-12T10:22:50.364Z,7.00
2018-10-12T10:25:20.525Z,7.33
2018-10-12T10:27:50.696Z,6.03
2018-10-12T10:30:21.008Z,6.63
2018-10-12T10:32:51.129Z,5.53
2018-10-12T10:35:21.205Z,6.20
2018-10-12T10:37:51.368Z,5.00
2018-10-12T10:40:21.513Z,5.83
2018-10-12T10:42:51.603Z,6.03
2018-10-12T10:45:21.760Z,6.17
2018-10-12T10:47:52.281Z,6.07
2018-10-12T10:50:22.431Z,5.07
2018-10-12T10:52:52.551Z,4.70
2018-10-12T10:55:22.641Z,5.40
2018-10-12T10:57:52.780Z,6.10
2018-10-12T11:00:23.109Z,4.40
2018-10-12T11:02:53.200Z,7.60
2018-10-12T11:05:23.323Z,5.73
2018-10-12T11:07:53.463Z,4.67
2018-10-12T11:10:23.749Z,6.83
2018-10-12T11:12:54.035Z,7.60
2018-10-12T11:15:24.589Z,7.13
2018-10-12T11:17:54.668Z,6.20
2018-10-12T11:20:24.741Z,6.40
2018-10-12T11:22:54.926Z,6.47
2018-10-12T11:25:25.097Z,4.53
2018-10-12T11:27:55.367Z,5.30
2018-10-12T11:30:25.700Z,4.23
2018-10-12T11:32:55.951Z,5.30
2018-10-12T11:35:26.063Z,3.90
2018-10-12T11:37:58.045Z,4.73
2018-10-12T11:40:29.878Z,4.90
2018-10-12T11:43:16.818Z,4.80
2018-10-12T11:45:53.314Z,6.37
2018-10-12T11:48:23.921Z,4.30
2018-10-12T11:50:55.578Z,5.43
2018-10-12T11:53:27.477Z,4.50
2018-10-12T11:55:58.829Z,5.30
2018-10-12T11:58:30.693Z,3.97
2018-10-12T12:01:01.418Z,4.53
2018-10-12T12:03:32.791Z,4.90
2018-10-12T12:06:04.915Z,7.60
2018-10-12T12:08:35.378Z,7.13
2018-10-12T12:11:05.588Z,3.40
2018-10-12T12:13:40.574Z,4.77
2018-10-12T12:16:11.683Z,3.30
2018-10-12T12:18:42.929Z,3.90
2018-10-12T12:21:13.089Z,3.80
2018-10-12T12:23:43.284Z,3.37
2018-10-12T12:26:18.288Z,3.57
2018-10-12T12:28:50.088Z,4.03
2018-10-12T12:31:21.891Z,3.77
2018-10-12T12:33:52.611Z,3.20
2018-10-12T12:36:24.250Z,3.00
2018-10-12T12:38:56.736Z,2.77
2018-10-12T12:41:26.943Z,2.80
2018-10-12T12:43:57.382Z,3.03
2018-10-12T12:46:29.795Z,3.57
2018-10-12T12:49:01.621Z,2.93
2018-10-12T12:51:31.633Z,4.40
2018-10-12T12:54:02.014Z,3.97
2018-10-12T12:56:33.120Z,2.90
2018-10-12T12:59:04.007Z,6.63
2018-10-12T13:01:34.531Z,3.40
2018-10-12T13:04:05.077Z,3.13
2018-10-12T13:06:36.180Z,2.80
2018-10-12T13:09:10.116Z,3.77
2018-10-12T13:11:40.621Z,3.03
2018-10-12T13:14:11.969Z,2.47
2018-10-12T13:16:43.235Z,3.12
2018-10-12T13:19:14.380Z,2.75
2018-10-12T13:21:46.034Z,2.12
2018-10-12T13:24:16.784Z,2.30
2018-10-12T13:26:49.451Z,2.10
2018-10-12T13:29:19.845Z,13.65
2018-10-12T13:31:50.087Z,166.73
2018-10-12T13:34:20.832Z,344.15
2018-10-12T13:36:54.977Z,365.35
2018-10-12T13:39:27.126Z,142.18
2018-10-12T13:41:57.350Z,281.63
2018-10-12T13:44:27.839Z,332.12
2018-10-12T13:46:59.187Z,371.90
2018-10-12T13:49:29.468Z,396.05
2018-10-12T13:52:00.590Z,311.68
2018-10-12T13:54:31.057Z,326.05
2018-10-12T13:57:02.724Z,42.62
2018-10-12T13:59:33.724Z,5.17
2018-10-12T14:02:03.951Z,5.40
2018-10-12T14:04:35.742Z,4.00
2018-10-12T14:07:06.009Z,3.55
2018-10-12T14:09:37.086Z,2.90
2018-10-12T14:12:08.664Z,3.67
2018-10-12T14:14:41.206Z,4.78
2018-10-12T14:17:13.567Z,4.05
2018-10-12T14:19:44.059Z,3.47
2018-10-12T14:22:14.344Z,3.45
2018-10-12T14:24:45.098Z,4.17
2018-10-12T14:27:15.255Z,5.80
2018-10-12T14:29:46.758Z,7.40
2018-10-12T14:32:16.910Z,5.42
2018-10-12T14:34:47.247Z,3.37
2018-10-12T14:37:27.014Z,7.23
2018-10-12T14:39:59.305Z,3.50
2018-10-12T14:42:30.229Z,6.67
2018-10-12T14:45:02.083Z,7.87
2018-10-12T14:47:34.568Z,3.43
2018-10-12T14:50:04.856Z,59.60
2018-10-12T14:52:35.867Z,68.30
2018-10-12T14:55:06.653Z,203.27
2018-10-12T14:57:38.210Z,193.07
2018-10-12T15:00:10.753Z,201.67
2018-10-12T15:02:41.483Z,210.60
2018-10-12T15:05:13.153Z,216.00
2018-10-12T15:07:43.379Z,218.00
2018-10-12T15:10:14.286Z,198.07
2018-10-12T15:12:44.841Z,199.68
2018-10-12T15:15:24.602Z,242.68
2018-10-12T15:17:55.879Z,257.15
2018-10-12T15:20:27.253Z,324.62
2018-10-12T15:22:57.935Z,259.57
2018-10-12T15:25:30.003Z,256.23
2018-10-12T15:28:05.070Z,253.35
2018-10-12T15:30:35.436Z,249.40
2018-10-12T15:33:06.116Z,259.73
2018-10-12T15:35:36.415Z,250.38
2018-10-12T15:38:08.322Z,250.38
2018-10-12T15:40:39.046Z,259.75
2018-10-12T15:43:10.127Z,271.98
2018-10-12T15:45:41.006Z,243.85
2018-10-12T15:48:11.200Z,239.95
2018-10-12T15:50:42.150Z,234.10
2018-10-12T15:53:13.162Z,209.93
2018-10-12T15:55:43.498Z,222.77
2018-10-12T15:58:14.868Z,164.97
2018-10-12T16:00:45.970Z,138.00
2018-10-12T16:03:17.094Z,137.47
2018-10-12T16:05:48.779Z,142.27
2018-10-12T16:08:19.606Z,96.10
2018-10-12T16:10:50.196Z,96.17
2018-10-12T16:13:21.468Z,88.23
2018-10-12T16:15:52.049Z,41.97
2018-10-12T16:18:22.541Z,32.87
2018-10-12T16:20:53.883Z,38.73
2018-10-12T16:23:24.982Z,28.57
2018-10-12T16:26:18.844Z,31.00
2018-10-12T16:28:50.206Z,23.83
2018-10-12T16:31:20.353Z,20.43
2018-10-12T16:33:50.901Z,23.17
2018-10-12T16:36:21.255Z,24.10
2018-10-12T16:38:51.999Z,18.80
2018-10-12T16:41:22.958Z,17.70
2018-10-12T16:43:54.204Z,16.53
2018-10-12T16:46:25.038Z,15.07
2018-10-12T16:48:56.076Z,16.93
2018-10-12T16:51:26.272Z,16.07
2018-10-12T16:53:56.478Z,31.23
2018-10-12T16:56:26.684Z,16.83
2018-10-12T16:58:57.738Z,14.47
2018-10-12T17:01:28.124Z,45.67
2018-10-12T17:03:59.012Z,45.30
2018-10-12T17:06:29.352Z,62.43
2018-10-12T17:08:59.762Z,123.53
2018-10-12T17:11:30.011Z,30.13
2018-10-12T17:14:01.546Z,38.20
2018-10-12T17:16:31.751Z,34.83
2018-10-12T17:19:02.173Z,61.33
2018-10-12T17:21:32.382Z,32.80
2018-10-12T17:24:03.057Z,46.37
2018-10-12T17:26:34.827Z,88.70
2018-10-12T17:29:04.994Z,34.13
2018-10-12T17:31:36.181Z,21.97
2018-10-12T17:34:07.013Z,101.17
2018-10-12T17:37:01.655Z,72.50
2018-10-12T17:39:32.159Z,27.97
2018-10-12T17:42:15.246Z,34.47
2018-10-12T17:44:45.965Z,30.00
2018-10-12T17:47:17.287Z,53.67
2018-10-12T17:49:47.787Z,27.93
2018-10-12T17:52:18.281Z,51.70
2018-10-12T17:54:48.823Z,49.57
2018-10-12T17:57:19.562Z,26.33
2018-10-12T17:59:50.164Z,11.30
2018-10-12T18:02:20.745Z,35.87
2018-10-12T18:04:51.262Z,16.13
2018-10-12T18:07:21.865Z,29.47
2018-10-12T18:09:52.376Z,25.10
2018-10-12T18:12:22.993Z,33.17
2018-10-12T18:14:53.510Z,11.17
2018-10-12T18:17:24.109Z,10.10
2018-10-12T18:19:54.618Z,16.30
2018-10-12T18:22:25.259Z,12.87
2018-10-12T18:24:55.853Z,20.50
2018-10-12T18:27:26.675Z,15.43
2018-10-12T18:29:56.863Z,25.67
2018-10-12T18:32:27.560Z,9.80
2018-10-12T18:34:59.197Z,6.83
2018-10-12T18:37:31.381Z,7.73
2018-10-12T18:40:01.980Z,10.63
2018-10-12T18:42:33.255Z,7.83
2018-10-12T18:45:03.758Z,9.47
2018-10-12T18:47:34.319Z,7.10
2018-10-12T18:50:04.930Z,9.00
2018-10-12T18:52:35.843Z,6.80
2018-10-12T18:55:06.429Z,9.77
2018-10-12T18:57:37.051Z,7.30
2018-10-12T19:00:09.469Z,6.47
2018-10-12T19:02:40.531Z,5.87
2018-10-12T19:05:11.371Z,7.10
2018-10-12T19:07:42.090Z,7.03
2018-10-12T19:10:13.898Z,6.17
2018-10-12T19:12:46.632Z,6.13
2018-10-12T19:15:17.369Z,6.77
2018-10-12T19:17:48.046Z,7.47
2018-10-12T19:20:18.615Z,6.73
2018-10-12T19:22:49.137Z,6.20
2018-10-12T19:25:20.418Z,6.77
2018-10-12T19:27:50.991Z,5.97
2018-10-12T19:30:21.569Z,6.73
2018-10-12T19:32:52.253Z,7.60
2018-10-12T19:35:22.990Z,7.30
2018-10-12T19:37:53.622Z,7.83
2018-10-12T19:40:24.203Z,7.77
2018-10-12T19:42:54.783Z,7.30
2018-10-12T19:45:25.321Z,7.63
2018-10-12T19:47:56.092Z,8.57
2018-10-12T19:50:30.998Z,8.70
2018-10-12T19:53:01.618Z,8.93
2018-10-12T19:55:32.062Z,8.03
2018-10-12T19:58:02.574Z,8.87
2018-10-12T20:00:33.259Z,7.10
2018-10-12T20:03:03.737Z,7.73
2018-10-12T20:05:34.406Z,7.73
2018-10-12T20:08:05.201Z,6.67
2018-10-12T20:10:35.951Z,6.90
2018-10-12T20:13:06.575Z,7.87
2018-10-12T20:15:37.458Z,7.07
2018-10-12T20:18:08.210Z,7.83
2018-10-12T20:20:39.746Z,8.87
2018-10-12T20:23:10.336Z,11.47
2018-10-12T20:25:40.905Z,7.50
2018-10-12T20:28:11.587Z,7.90
2018-10-12T20:30:42.229Z,7.57
2018-10-12T20:33:12.908Z,9.00
2018-10-12T20:35:43.556Z,6.97
2018-10-12T20:38:14.280Z,7.17
2018-10-12T20:40:44.841Z,8.37
2018-10-12T20:43:15.829Z,6.93
2018-10-12T20:45:46.488Z,8.80
2018-10-12T20:48:17.013Z,7.63
2018-10-12T20:50:47.651Z,8.30
2018-10-12T20:53:18.081Z,6.73
2018-10-12T20:55:48.774Z,7.07
2018-10-12T20:58:19.335Z,6.37
2018-10-12T21:00:51.157Z,7.70
2018-10-12T21:03:23.258Z,7.37
2018-10-12T21:05:56.155Z,7.83
2018-10-12T21:08:30.974Z,8.00
2018-10-12T21:11:02.690Z,6.73
2018-10-12T21:13:35.066Z,7.10
2018-10-12T21:16:07.427Z,8.90
2018-10-12T21:18:39.527Z,9.17
2018-10-12T21:21:11.859Z,8.00
2018-10-12T21:23:43.344Z,9.80
2018-10-12T21:26:15.690Z,7.63
2018-10-12T21:28:47.459Z,7.67
2018-10-12T21:31:19.740Z,7.30
2018-10-12T21:33:51.516Z,8.23
2018-10-12T21:36:23.434Z,8.87
2018-10-12T21:38:55.033Z,8.80
2018-10-12T21:41:26.753Z,7.93
2018-10-12T21:43:58.333Z,7.67
2018-10-12T21:46:30.850Z,7.90
2018-10-12T21:49:02.750Z,8.43
2018-10-12T21:51:35.575Z,13.07
2018-10-12T21:54:07.264Z,10.23
2018-10-12T21:56:38.866Z,10.83
2018-10-12T21:59:10.637Z,10.83
2018-10-12T22:01:42.336Z,8.20
2018-10-12T22:04:14.259Z,10.37
2018-10-12T22:06:45.855Z,8.00
2018-10-12T22:09:17.478Z,8.73
2018-10-12T22:11:49.509Z,9.70
2018-10-12T22:14:21.414Z,8.70
2018-10-12T22:16:53.353Z,8.57
2018-10-12T22:19:25.052Z,9.10
2018-10-12T22:21:57.747Z,7.13
2018-10-12T22:24:29.476Z,7.47
2018-10-12T22:27:01.079Z,7.80
2018-10-12T22:29:33.036Z,7.23
2018-10-12T22:32:05.227Z,7.93
2018-10-12T22:34:36.864Z,7.93
2018-10-12T22:37:08.991Z,9.77
2018-10-12T22:39:43.135Z,7.90
2018-10-12T22:42:15.800Z,7.80
2018-10-12T22:44:47.514Z,10.70
2018-10-12T22:47:22.670Z,8.60
2018-10-12T22:49:59.587Z,8.17
2018-10-12T22:52:34.457Z,7.40
2018-10-12T22:55:10.992Z,7.70
2018-10-12T22:57:44.853Z,7.83
2018-10-12T23:00:26.608Z,8.33
2018-10-12T23:03:00.535Z,8.80
2018-10-12T23:05:34.871Z,7.77
2018-10-12T23:08:10.941Z,7.43
2018-10-12T23:10:43.629Z,7.73
2018-10-12T23:13:15.682Z,8.60
2018-10-12T23:15:47.645Z,8.27
2018-10-12T23:18:19.537Z,7.87
2018-10-12T23:20:51.964Z,8.07
2018-10-12T23:23:23.847Z,8.37
2018-10-12T23:25:55.483Z,8.63
2018-10-12T23:28:26.150Z,8.13
2018-10-12T23:30:58.026Z,8.80
2018-10-12T23:33:45.605Z,8.20
2018-10-12T23:36:17.443Z,8.03
2018-10-12T23:38:49.077Z,8.03
2018-10-12T23:41:20.614Z,9.00
2018-10-12T23:43:52.178Z,8.30
2018-10-12T23:46:24.114Z,8.60
2018-10-12T23:48:55.732Z,8.10
2018-10-12T23:51:27.684Z,8.73
2018-10-12T23:53:59.399Z,8.87
2018-10-12T23:56:31.055Z,10.20
2018-10-12T23:59:02.762Z,9.33
